Latest Weather Observations for Lady Elliot Island

IDQ60801

Issued at 12:32 am EST Sunday 24 May 2015 (issued every 30 minutes, with the page automatically refreshed every 10 minutes)

About weather observations | Map of weather stations | Latest weather observations for QLD | Other Formats
Station Details ID: 039059 Name: LADY ELLIOT ISLAND Lat: -24.11 Lon: 152.72 Height: 3.6 m
Data from the previous 72 hours. | See also: Recent months at Lady Elliot Island
Date/Time
EST
Temp
°C
App
Temp
°C
Dew
Point
Rel
Hum
%
Delta-T
°C
Wind Press
QNH
hPa
Press
MSL
hPa
Rain
since 9 am
mm
Dir
 
Spd
km/h
Gust
km/h
Spd
kts
Gust
kts
24/12:30am 21.0 17.7 16.0 73 3.0 S 28 41 15 22 1022.1 - 0.0
24/12:17am 21.4 17.8 15.3 68 3.6 SSE 28 46 15 25 1022.1 - 0.0
24/12:00am 21.2 17.3 15.5 70 3.4 SSE 30 44 16 24 1022.2 1022.2 0.0
 
Date/Time
EST
Temp
°C
App
Temp
°C
Dew
Point
Rel
Hum
%
Delta-T
°C
Wind Press
QNH
hPa
Press
MSL
hPa
Rain
since 9 am
mm
Dir
 
Spd
km/h
Gust
km/h
Spd
kts
Gust
kts
23/11:30pm 21.1 17.7 15.9 72 3.1 SSE 28 43 15 23 1022.3 - 0.0
23/11:00pm 21.4 16.9 15.5 69 3.5 SSE 33 46 18 25 1022.4 - 0.0
23/10:30pm 21.7 16.1 14.5 63 4.2 SSE 37 52 20 28 1022.3 - 0.0
23/10:15pm 21.7 16.8 14.3 62 4.3 SSE 33 52 18 28 1022.1 - 0.0
23/10:00pm 21.7 16.6 14.7 64 4.1 SSE 35 52 19 28 1022.4 - 0.0
23/09:38pm 21.6 16.9 15.9 70 3.4 SSE 35 54 19 29 1022.4 - 0.0
23/09:30pm 21.9 16.0 14.7 63 4.2 SSE 39 54 21 29 1022.3 - 0.0
23/09:21pm 21.8 16.6 14.6 63 4.2 SSE 35 54 19 29 1022.2 - 0.0
23/09:00pm 21.8 17.0 15.6 68 3.7 SSE 35 50 19 27 1022.2 1022.2 0.0
23/08:31pm 21.6 16.6 15.0 66 3.9 SSE 35 54 19 29 1022.1 - 0.0
23/08:30pm 21.7 16.3 15.1 66 3.9 SSE 37 54 20 29 1022.1 - 0.0
23/08:00pm 21.4 16.5 15.3 68 3.6 SSE 35 56 19 30 1022.0 - 0.0
23/07:52pm 21.3 16.4 15.2 68 3.6 SSE 35 56 19 30 1022.0 - 0.0
23/07:30pm 21.4 16.2 15.5 69 3.5 SSE 37 54 20 29 1022.0 - 0.0
23/07:00pm 21.4 16.6 15.5 69 3.5 SSE 35 56 19 30 1021.8 - 0.0
23/06:30pm 21.4 16.5 15.3 68 3.6 SSE 35 57 19 31 1021.6 - 0.0
23/06:00pm 21.5 16.2 15.4 68 3.6 SSE 37 56 20 30 1021.4 1021.4 0.0
23/05:36pm 21.5 16.2 15.4 68 3.6 SSE 37 56 20 30 1021.1 - 0.0
23/05:30pm 21.6 15.9 15.2 67 3.8 SSE 39 54 21 29 1021.1 - 0.0
23/05:11pm 21.6 16.9 15.9 70 3.4 SSE 35 54 19 29 1020.9 - 0.0
23/05:00pm 21.9 17.2 15.9 68 3.6 SSE 35 50 19 27 1020.6 - 0.0
23/04:33pm 21.8 17.3 15.4 67 3.8 SSE 33 52 18 28 1020.7 - 0.0
23/04:30pm 21.6 17.1 15.5 68 3.6 SSE 33 50 18 27 1020.6 - 0.0
23/04:00pm 21.8 17.2 16.1 70 3.4 SSE 35 48 19 26 1020.6 - 0.0
23/03:37pm 22.1 18.1 16.3 69 3.5 SSE 32 50 17 27 1020.3 - 0.0
23/03:30pm 21.8 17.1 15.8 68 3.6 SSE 35 52 19 28 1020.1 - 0.0
23/03:00pm 21.9 17.8 16.4 71 3.3 SSE 33 54 18 29 1019.9 1019.9 0.0
23/02:54pm 21.9 18.0 16.4 71 3.3 SSE 32 54 17 29 1019.9 - 0.0
23/02:30pm 22.4 19.0 16.8 70 3.4 SSE 30 46 16 25 1019.6 - 0.0
23/02:00pm 22.5 17.4 15.8 66 4.0 SSE 37 50 20 27 1019.5 - 0.0
23/01:30pm 22.3 18.9 16.7 70 3.4 SSE 30 48 16 26 1019.6 - 0.0
23/01:01pm 21.3 18.1 16.3 73 3.0 S 28 46 15 25 1019.7 - 0.0
23/01:00pm 21.2 18.0 16.4 74 2.9 S 28 44 15 24 1019.8 - 0.0
23/12:30pm 21.5 18.2 16.0 71 3.3 S 28 52 15 28 1020.0 - 0.0
23/12:03pm 21.1 17.6 15.4 70 3.4 S 28 46 15 25 1020.3 - 0.0
23/12:00pm 21.5 18.2 16.0 71 3.3 S 28 43 15 23 1020.4 1020.4 0.0
23/11:47am 21.2 17.7 15.5 70 3.4 S 28 46 15 25 1020.4 - 0.0
23/11:30am 21.0 17.7 15.1 69 3.5 S 26 44 14 24 1020.6 - 0.0
23/11:00am 20.7 16.5 14.7 68 3.5 S 30 43 16 23 1021.0 - 0.0
23/10:30am 20.8 17.0 14.6 67 3.6 S 28 41 15 22 1021.2 - 0.0
23/10:00am 20.5 16.6 14.5 68 3.5 S 28 41 15 22 1021.1 - 0.0
23/09:30am 19.8 16.2 14.3 70 3.2 S 26 41 14 22 1021.0 - 0.0
23/09:00am 19.6 15.4 13.6 68 3.4 S 28 41 15 22 1020.7 1020.7 0.0
23/08:30am 19.2 15.1 13.8 71 3.1 S 28 44 15 24 1020.5 - 0.0
23/08:06am 18.9 14.7 13.4 70 3.1 S 28 46 15 25 1020.3 - 0.0
23/08:00am 19.0 14.8 13.5 70 3.1 S 28 41 15 22 1020.2 - 0.0
23/07:37am 18.7 14.5 13.4 71 3.0 S 28 46 15 25 1019.8 - 0.0
23/07:30am 18.8 14.6 13.5 71 3.0 S 28 41 15 22 1019.9 - 0.0
23/07:19am 18.7 14.3 13.0 69 3.2 S 28 46 15 25 1019.7 - 0.0
23/07:00am 18.5 14.1 12.8 69 3.2 S 28 41 15 22 1019.5 - 0.0
23/06:36am 18.3 14.0 13.1 71 2.9 S 28 46 15 25 1019.3 - 0.0
23/06:30am 18.3 13.4 12.7 70 3.1 S 30 44 16 24 1019.2 - 0.0
23/06:00am 18.0 13.9 12.8 71 2.9 S 26 44 14 24 1019.1 1019.1 0.0
23/05:41am 17.8 13.2 12.4 70 3.0 S 28 50 15 27 1019.0 - 0.0
23/05:30am 17.6 13.0 12.3 71 2.9 S 28 44 15 24 1019.0 - 0.0
23/05:00am 17.4 12.3 11.9 70 3.0 S 30 44 16 24 1018.6 - 0.0
23/04:30am 17.2 11.7 11.9 71 2.9 S 32 44 17 24 1018.3 - 0.0
23/04:00am 17.0 11.3 11.9 72 2.8 S 33 46 18 25 1018.3 - 0.0
23/03:30am 17.1 11.6 11.8 71 2.9 S 32 46 17 25 1018.3 - 0.0
23/03:00am 17.1 10.5 11.4 69 3.1 S 37 54 20 29 1018.4 1018.4 0.0
23/02:41am 17.0 10.7 11.0 68 3.2 S 35 54 19 29 1018.4 - 0.0
23/02:30am 16.9 9.6 10.3 65 3.5 S 39 52 21 28 1018.3 - 0.0
23/02:02am 16.9 10.4 10.5 66 3.4 S 35 54 19 29 1018.7 - 0.0
23/02:00am 16.9 10.2 10.9 67 3.2 S 37 54 20 29 1018.7 - 0.0
23/01:30am 17.2 10.5 11.1 67 3.3 S 37 54 20 29 1018.9 - 0.0
23/01:17am 16.9 9.6 10.3 65 3.5 SSW 39 57 21 31 1018.9 - 0.0
23/01:00am 17.2 10.3 10.4 64 3.6 SSW 37 52 20 28 1019.2 - 0.0
23/12:34am 17.3 11.2 10.3 63 3.7 SSW 33 52 18 28 1019.6 - 0.0
23/12:30am 17.1 10.1 9.9 62 3.8 S 37 52 20 28 1019.7 - 0.0
23/12:14am 17.1 10.4 9.6 61 3.9 SSW 35 54 19 29 1019.6 - 0.0
23/12:00am 17.2 11.0 10.2 63 3.7 SSW 33 50 18 27 1019.7 1019.7 0.0
 
Date/Time
EST
Temp
°C
App
Temp
°C
Dew
Point
Rel
Hum
%
Delta-T
°C
Wind Press
QNH
hPa
Press
MSL
hPa
Rain
since 9 am
mm
Dir
 
Spd
km/h
Gust
km/h
Spd
kts
Gust
kts
22/11:30pm 17.1 11.3 9.4 60 4.0 SSW 30 48 16 26 1020.2 - 0.0
22/11:23pm 17.1 11.3 9.4 60 4.0 SSW 30 48 16 26 1020.2 - 0.0
22/11:00pm 17.3 11.1 9.4 59 4.1 SSW 32 44 17 24 1020.1 - 0.0
22/10:39pm 17.1 10.2 8.9 58 4.2 SSW 35 59 19 32 1020.1 - 0.0
22/10:30pm 17.3 10.5 9.2 59 4.2 SSW 35 50 19 27 1020.0 - 0.0
22/10:00pm 17.0 10.1 8.8 58 4.2 SSW 35 48 19 26 1020.2 - 0.0
22/09:36pm 16.9 10.3 8.7 58 4.2 SSW 33 52 18 28 1020.4 - 0.0
22/09:30pm 17.0 9.6 8.4 57 4.4 SSW 37 54 20 29 1020.6 - 0.0
22/09:00pm 17.5 10.3 9.2 58 4.3 SSW 37 56 20 30 1020.1 1020.1 0.0
22/08:30pm 18.7 12.8 9.1 53 5.0 SSW 30 48 16 26 1019.7 - 0.0
22/08:22pm 19.0 13.7 10.0 56 4.8 SSW 28 46 15 25 1019.5 - 0.0
22/08:00pm 19.3 14.3 8.2 48 5.7 SW 24 39 13 21 1019.3 - 0.0
22/07:30pm 19.9 14.5 6.2 41 6.8 SW 24 39 13 21 1018.9 - 0.0
22/07:00pm 20.0 14.5 6.1 40 6.9 SSW 24 37 13 20 1018.4 - 0.0
22/06:30pm 20.4 14.5 3.8 33 7.9 SW 24 37 13 20 1018.1 - 0.0
22/06:00pm 20.5 15.6 6.9 41 6.9 SW 22 32 12 17 1017.8 1017.8 0.0
22/05:30pm 20.7 15.1 5.5 37 7.5 SSW 24 33 13 18 1017.2 - 0.0
22/05:00pm 21.0 15.5 4.2 33 8.1 SW 22 35 12 19 1016.9 - 0.0
22/04:30pm 21.5 16.2 3.2 30 8.7 SSW 20 30 11 16 1016.6 - 0.0
22/04:00pm 21.9 16.8 6.0 35 8.0 SSW 22 32 12 17 1016.3 - 0.0
22/03:30pm 22.2 17.6 6.5 36 8.0 SW 20 30 11 16 1016.1 - 0.0
22/03:00pm 22.2 18.2 8.3 41 7.3 SW 19 30 10 16 1016.0 1016.0 0.0
22/02:30pm 22.1 18.2 8.7 42 7.1 SW 19 30 10 16 1016.1 - 0.0
22/02:00pm 22.0 18.8 10.0 46 6.5 SW 17 26 9 14 1016.3 - 0.0
22/01:30pm 21.9 18.1 9.9 46 6.5 SSW 20 32 11 17 1016.5 - 0.0
22/01:00pm 21.9 17.8 10.1 47 6.4 SSW 22 35 12 19 1016.7 - 0.0
22/12:30pm 20.9 15.0 9.2 47 6.2 SSW 30 41 16 22 1017.0 - 0.0
22/12:00pm 21.4 16.6 11.7 54 5.4 S 28 37 15 20 1017.3 1017.3 0.0
22/11:30am 20.9 16.3 12.4 58 4.8 SSW 28 41 15 22 1017.8 - 0.0
22/11:00am 20.8 16.3 13.7 64 4.1 S 30 41 16 22 1017.9 - 0.0
22/10:30am 20.5 16.1 14.1 66 3.7 S 30 39 16 21 1018.3 - 0.0
22/10:00am 20.4 17.1 14.9 70 3.2 SSW 26 37 14 20 1018.3 - 0.0
22/09:30am 19.9 16.5 14.8 72 3.0 SSW 26 39 14 21 1018.4 - 0.0
22/09:10am 19.9 15.7 14.6 71 3.1 SSW 30 48 16 26 1018.3 - 0.0
22/09:00am 20.0 15.4 14.7 71 3.1 SSW 32 46 17 25 1018.2 1018.2 2.4
22/08:30am 19.8 16.1 15.0 74 2.8 SSW 28 41 15 22 1017.8 - 2.4
22/08:00am 19.6 16.0 15.2 76 2.6 SSW 28 46 15 25 1017.7 - 2.4
22/07:59am 19.5 15.8 15.1 76 2.6 SSW 28 46 15 25 1017.7 - 2.4
22/07:30am 19.5 15.5 15.2 76 2.5 SSW 30 44 16 24 1017.3 - 2.4
22/07:11am 19.5 15.5 15.2 76 2.5 SSW 30 48 16 26 1017.1 - 2.4
22/07:00am 19.3 14.9 15.6 79 2.2 S 33 48 18 26 1016.9 - 2.4
22/06:30am 18.6 14.4 16.2 86 1.4 S 33 46 18 25 1016.9 - 2.4
22/06:00am 18.7 15.6 17.4 92 0.8 SSW 30 43 16 23 1016.7 1016.7 2.4
22/05:30am 18.6 15.8 17.4 93 0.7 SSW 28 43 15 23 1016.5 - 2.0
22/05:05am 19.1 16.5 17.8 92 0.8 SSW 28 46 15 25 1016.1 - 1.4
22/05:00am 19.4 17.3 18.1 92 0.8 SSW 26 46 14 25 1016.0 - 1.2
22/04:48am 19.4 16.3 17.6 89 1.1 SSW 30 48 16 26 1015.8 - 1.0
22/04:30am 19.4 15.9 17.4 88 1.2 SSW 32 44 17 24 1015.6 - 0.8
22/04:00am 19.6 17.0 17.8 89 1.1 SSW 28 41 15 22 1015.6 - 0.8
22/03:30am 20.1 18.9 18.3 89 1.1 SSW 22 39 12 21 1015.5 - 0.8
22/03:00am 20.4 19.6 19.3 93 0.7 SSW 22 35 12 19 1015.2 1015.2 0.8
22/02:30am 20.7 20.3 19.4 92 0.8 SSW 20 32 11 17 1015.3 - 0.8
22/02:00am 22.3 21.7 19.8 86 1.6 WSW 22 35 12 19 1015.6 - 0.0
22/01:30am 24.1 25.4 20.9 82 2.1 NW 15 24 8 13 1015.3 - 0.0
22/01:00am 24.0 24.3 20.8 82 2.1 NNW 20 30 11 16 1015.5 - 0.0
22/12:30am 24.0 23.8 20.6 81 2.2 NNW 22 30 12 16 1015.8 - 0.0
22/12:00am 24.0 23.2 20.9 83 2.0 N 26 32 14 17 1016.0 1016.0 0.0
 
Date/Time
EST
Temp
°C
App
Temp
°C
Dew
Point
Rel
Hum
%
Delta-T
°C
Wind Press
QNH
hPa
Press
MSL
hPa
Rain
since 9 am
mm
Dir
 
Spd
km/h
Gust
km/h
Spd
kts
Gust
kts
21/11:30pm 23.9 23.9 21.0 84 1.9 N 22 28 12 15 1016.4 - 0.0
21/11:00pm 24.0 23.8 20.6 81 2.2 N 22 28 12 15 1016.8 - 0.0
21/10:30pm 23.9 23.2 21.0 84 1.9 N 26 32 14 17 1017.0 - 0.0
21/10:00pm 24.1 24.2 21.2 84 1.9 N 22 30 12 16 1017.1 - 0.0
21/09:30pm 24.1 24.5 20.9 82 2.1 N 20 26 11 14 1017.4 - 0.0
21/09:00pm 24.1 23.7 20.9 82 2.1 N 24 30 13 16 1017.3 1017.3 0.0
21/08:30pm 23.9 24.0 21.2 85 1.8 N 22 28 12 15 1017.3 - 0.0
21/08:00pm 24.0 24.2 21.3 85 1.8 N 22 28 12 15 1017.0 - 0.0
21/07:30pm 24.0 24.6 21.3 85 1.8 N 20 28 11 15 1017.0 - 0.0
21/07:00pm 24.1 24.8 21.2 84 1.9 N 19 28 10 15 1016.5 - 0.0
21/06:30pm 24.1 24.8 21.2 84 1.9 N 19 26 10 14 1016.4 - 0.0
21/06:00pm 23.9 24.5 21.3 85 1.7 N 20 26 11 14 1016.1 1016.1 0.0
21/05:30pm 24.1 24.8 21.2 84 1.9 N 19 24 10 13 1016.0 - 0.0
21/05:00pm 24.2 25.3 21.2 83 2.0 N 17 22 9 12 1015.9 - 0.0
21/04:30pm 24.7 26.1 20.4 77 2.8 N 13 17 7 9 1016.1 - 0.0
21/04:00pm 25.1 26.8 21.0 78 2.7 N 13 19 7 10 1015.8 - 0.0
21/03:30pm 24.9 27.3 20.8 78 2.7 N 9 13 5 7 1015.7 - 0.0
21/03:00pm 24.9 27.9 21.9 83 2.0 N 9 15 5 8 1015.8 1015.8 0.0
21/02:30pm 25.0 28.0 21.2 79 2.5 NW 7 11 4 6 1015.9 - 0.0
21/02:00pm 25.7 28.2 21.0 75 3.1 NNW 9 11 5 6 1016.1 - 0.0
21/01:30pm 25.5 27.5 20.8 75 3.1 NW 11 15 6 8 1016.3 - 0.0
21/01:00pm 25.1 27.6 21.0 78 2.7 NNW 9 13 5 7 1016.8 - 0.0
21/12:30pm 26.0 27.8 21.2 75 3.2 NNW 13 15 7 8 1017.2 - 0.0
21/12:00pm 25.4 27.4 21.5 79 2.6 N 13 15 7 8 1017.7 1017.7 0.0
21/11:30am 25.8 28.3 21.7 78 2.7 N 11 13 6 7 1018.2 - 0.0
21/11:00am 24.9 27.1 21.1 79 2.5 NNW 11 15 6 8 1018.6 - 0.0
21/10:30am 24.9 26.3 20.4 76 2.9 NNW 13 19 7 10 1019.0 - 0.0
21/10:00am 24.2 26.1 21.3 84 1.9 N 13 17 7 9 1019.2 - 0.0
21/09:30am 24.7 27.2 21.0 80 2.4 N 9 13 5 7 1019.5 - 0.0
21/09:00am 25.0 27.6 21.2 79 2.5 N 9 13 5 7 1019.4 1019.4 4.4
21/08:30am 24.1 26.9 20.9 82 2.1 N 7 9 4 5 1019.4 - 4.4
21/08:00am 24.4 27.3 21.0 81 2.2 N 7 9 4 5 1019.1 - 4.4
21/07:30am 24.0 27.0 20.8 82 2.1 N 6 7 3 4 1019.0 - 4.4
21/07:00am 23.3 25.3 19.9 81 2.2 N 9 11 5 6 1018.8 - 4.4
21/06:30am 23.1 23.9 19.8 82 2.1 N 15 17 8 9 1018.3 - 4.4
21/06:00am 22.7 24.9 20.4 87 1.5 N 9 13 5 7 1018.2 1018.2 4.4
21/05:30am 22.7 24.9 20.5 87 1.4 N 9 13 5 7 1017.8 - 4.4
21/05:00am 22.5 24.4 20.6 89 1.2 N 11 15 6 8 1017.8 - 4.4
21/04:30am 22.1 22.5 20.7 92 0.9 N 19 24 10 13 1017.8 - 4.4
21/04:00am 22.0 21.2 20.8 93 0.8 N 26 32 14 17 1017.8 - 4.4
21/03:30am 21.8 24.8 20.9 95 0.6 NNE 6 9 3 5 1017.8 - 4.4
21/03:00am 21.5 25.5 20.6 95 0.6 CALM 0 0 0 0 1017.9 1017.9 4.4
21/02:30am 21.3 23.9 20.4 95 0.6 N 7 9 4 5 1018.2 - 3.8
21/02:00am 21.7 23.3 20.8 95 0.6 N 13 17 7 9 1018.5 - 3.2
21/01:30am 22.1 25.0 20.7 92 0.9 N 6 11 3 6 1018.5 - 1.4
21/01:00am 21.5 24.1 20.1 92 0.9 SW 6 9 3 5 1018.6 - 1.4

Other Formats:

Comma delimited format used in spreadsheet applications
http://www.bom.gov.au/fwo/IDQ60801/IDQ60801.94388.axf

JavaScript Object Notation format (JSON) in row-major order
http://www.bom.gov.au/fwo/IDQ60801/IDQ60801.94388.json